createdAt,value
2022-12-17T00:01:18.531Z,21.10
2022-12-17T00:04:04.379Z,21.27
2022-12-17T00:06:50.119Z,20.23
2022-12-17T00:09:35.068Z,21.97
2022-12-17T00:12:20.198Z,21.63
2022-12-17T00:15:05.101Z,21.27
2022-12-17T00:17:50.135Z,22.57
2022-12-17T00:20:34.852Z,20.70
2022-12-17T00:23:22.147Z,21.63
2022-12-17T00:26:11.238Z,20.20
2022-12-17T00:28:56.966Z,19.83
2022-12-17T00:31:42.820Z,19.90
2022-12-17T00:34:27.672Z,20.17
2022-12-17T00:37:12.538Z,20.93
2022-12-17T00:39:59.383Z,19.53
2022-12-17T00:42:44.498Z,20.43
2022-12-17T00:45:29.448Z,20.53
2022-12-17T00:48:14.178Z,20.87
2022-12-17T00:50:59.181Z,20.63
2022-12-17T00:53:44.015Z,22.07
2022-12-17T00:56:29.334Z,21.17
2022-12-17T00:59:14.278Z,22.13
2022-12-17T01:01:59.278Z,23.27
2022-12-17T01:04:44.443Z,21.37
2022-12-17T01:07:29.724Z,21.90
2022-12-17T01:10:14.524Z,20.50
2022-12-17T01:12:59.671Z,22.27
2022-12-17T01:15:44.724Z,20.57
2022-12-17T01:18:37.218Z,20.23
2022-12-17T01:21:26.977Z,21.40
2022-12-17T01:24:11.799Z,23.17
2022-12-17T01:26:56.697Z,22.40
2022-12-17T01:29:41.474Z,22.13
2022-12-17T01:32:26.242Z,21.70
2022-12-17T01:35:11.098Z,22.97
2022-12-17T01:37:56.183Z,22.87
2022-12-17T01:40:40.989Z,24.27
2022-12-17T01:43:30.554Z,22.43
2022-12-17T01:46:16.778Z,22.20
2022-12-17T01:49:04.600Z,22.63
2022-12-17T01:52:00.989Z,23.33
2022-12-17T01:54:46.151Z,22.37
2022-12-17T01:57:31.553Z,22.10
2022-12-17T02:00:25.426Z,21.20
2022-12-17T02:03:10.626Z,21.10
2022-12-17T02:06:03.647Z,22.07
2022-12-17T02:09:10.361Z,22.23
2022-12-17T02:12:17.592Z,22.20
2022-12-17T02:15:40.601Z,23.23
2022-12-17T02:18:31.984Z,23.03
2022-12-17T02:21:18.292Z,24.00
2022-12-17T02:24:06.078Z,22.43
2022-12-17T02:27:09.971Z,22.23
2022-12-17T02:30:02.505Z,22.27
2022-12-17T02:32:49.133Z,21.80
2022-12-17T02:35:36.736Z,22.17
2022-12-17T02:38:35.387Z,21.10
2022-12-17T02:41:22.891Z,22.70
2022-12-17T02:44:08.581Z,22.23
2022-12-17T02:46:53.824Z,20.53
2022-12-17T02:49:38.737Z,22.10
2022-12-17T02:52:24.260Z,21.33
2022-12-17T02:55:09.087Z,19.67
2022-12-17T02:57:55.827Z,22.93
2022-12-17T03:00:40.546Z,21.43
2022-12-17T03:03:25.839Z,21.03
2022-12-17T03:06:10.638Z,20.87
2022-12-17T03:08:55.478Z,20.13
2022-12-17T03:11:40.452Z,19.87
2022-12-17T03:14:25.058Z,20.80
2022-12-17T03:17:10.237Z,20.70
2022-12-17T03:19:58.167Z,19.30
2022-12-17T03:22:43.286Z,20.73
2022-12-17T03:25:28.130Z,20.73
2022-12-17T03:28:12.987Z,20.37
2022-12-17T03:30:57.951Z,20.97
2022-12-17T03:33:43.037Z,20.00
2022-12-17T03:36:27.939Z,20.13
2022-12-17T03:39:13.006Z,19.87
2022-12-17T03:41:57.859Z,19.10
2022-12-17T03:44:42.797Z,19.70
2022-12-17T03:47:27.602Z,18.10
2022-12-17T03:50:12.364Z,18.77
2022-12-17T03:52:57.279Z,18.60
2022-12-17T03:55:42.394Z,18.03
2022-12-17T03:58:27.074Z,17.83
2022-12-17T04:01:12.088Z,19.47
2022-12-17T04:03:57.369Z,17.87
2022-12-17T04:06:42.305Z,16.97
2022-12-17T04:09:27.042Z,17.57
2022-12-17T04:12:11.748Z,16.50
2022-12-17T04:14:57.203Z,17.20
2022-12-17T04:17:42.006Z,16.40
2022-12-17T04:20:26.977Z,16.20
2022-12-17T04:23:12.014Z,17.17
2022-12-17T04:25:57.087Z,16.30
2022-12-17T04:28:42.267Z,15.77
2022-12-17T04:31:27.324Z,15.47
2022-12-17T04:34:12.418Z,16.23
2022-12-17T04:36:58.195Z,16.10
2022-12-17T04:39:43.264Z,15.97
2022-12-17T04:42:28.573Z,16.57
2022-12-17T04:45:13.531Z,15.67
2022-12-17T04:47:58.748Z,16.57
2022-12-17T04:50:43.672Z,15.47
2022-12-17T04:53:28.959Z,15.87
2022-12-17T04:56:14.708Z,14.93
2022-12-17T04:59:00.126Z,15.33
2022-12-17T05:01:45.159Z,16.07
2022-12-17T05:04:29.999Z,15.90
2022-12-17T05:07:14.875Z,16.77
2022-12-17T05:09:59.715Z,15.77
2022-12-17T05:12:44.830Z,15.97
2022-12-17T05:15:29.840Z,14.23
2022-12-17T05:18:23.543Z,16.17
2022-12-17T05:21:08.397Z,15.50
2022-12-17T05:23:53.504Z,15.47
2022-12-17T05:26:43.751Z,16.13
2022-12-17T05:29:30.388Z,16.00
2022-12-17T05:32:15.746Z,14.80
2022-12-17T05:35:00.513Z,14.97
2022-12-17T05:37:45.223Z,13.70
2022-12-17T05:40:30.786Z,15.20
2022-12-17T05:43:22.498Z,15.77
2022-12-17T05:46:08.234Z,15.50
2022-12-17T05:48:53.753Z,15.87
2022-12-17T05:51:39.692Z,15.97
2022-12-17T05:54:25.115Z,17.20
2022-12-17T05:57:10.426Z,18.43
2022-12-17T05:59:55.649Z,16.40
2022-12-17T06:02:40.792Z,16.97
2022-12-17T06:05:26.373Z,18.43
2022-12-17T06:08:11.293Z,17.37
2022-12-17T06:10:56.319Z,16.70
2022-12-17T06:13:41.055Z,17.03
2022-12-17T06:16:25.994Z,16.23
2022-12-17T06:19:11.294Z,15.33
2022-12-17T06:21:55.975Z,15.77
2022-12-17T06:24:45.755Z,15.57
2022-12-17T06:27:31.630Z,15.20
2022-12-17T06:30:18.915Z,15.20
2022-12-17T06:33:04.682Z,15.60
2022-12-17T06:35:49.545Z,14.63
2022-12-17T06:38:34.340Z,16.23
2022-12-17T06:41:20.372Z,14.07
2022-12-17T06:44:05.091Z,15.93
2022-12-17T06:46:50.252Z,14.43
2022-12-17T06:49:35.086Z,14.77
2022-12-17T06:52:20.298Z,15.07
2022-12-17T06:55:05.593Z,13.27
2022-12-17T06:57:50.804Z,14.40
2022-12-17T07:00:36.303Z,14.27
2022-12-17T07:03:24.299Z,14.13
2022-12-17T07:06:09.058Z,14.07
2022-12-17T07:08:54.025Z,13.67
2022-12-17T07:11:39.265Z,13.43
2022-12-17T07:14:24.464Z,12.23
2022-12-17T07:17:09.533Z,12.53
2022-12-17T07:19:54.447Z,13.37
2022-12-17T07:22:39.297Z,13.67
2022-12-17T07:25:24.651Z,13.23
2022-12-17T07:28:16.161Z,13.03
2022-12-17T07:31:01.092Z,13.20
2022-12-17T07:33:45.971Z,15.85
2022-12-17T07:36:30.809Z,13.07
2022-12-17T07:39:15.579Z,12.67
2022-12-17T07:42:00.472Z,14.07
2022-12-17T07:44:45.232Z,13.33
2022-12-17T07:47:30.026Z,14.47
2022-12-17T07:50:14.807Z,13.60
2022-12-17T07:52:59.658Z,13.33
2022-12-17T07:55:44.738Z,13.30
2022-12-17T07:58:30.225Z,12.17
2022-12-17T08:01:19.250Z,12.03
2022-12-17T08:04:04.292Z,12.43
2022-12-17T08:06:48.987Z,13.53
2022-12-17T08:09:33.897Z,10.67
2022-12-17T08:12:18.673Z,10.60
2022-12-17T08:15:03.385Z,11.13
2022-12-17T08:17:48.075Z,10.43
2022-12-17T08:20:33.147Z,11.87
2022-12-17T08:23:22.144Z,11.97
2022-12-17T08:26:07.141Z,10.10
2022-12-17T08:28:52.163Z,10.27
2022-12-17T08:31:38.575Z,11.27
2022-12-17T08:34:23.503Z,10.30
2022-12-17T08:37:08.468Z,12.00
2022-12-17T08:39:53.126Z,10.03
2022-12-17T08:42:37.962Z,12.07
2022-12-17T08:45:23.452Z,11.80
2022-12-17T08:48:08.390Z,13.37
2022-12-17T08:50:53.256Z,13.50
2022-12-17T08:53:38.330Z,13.00
2022-12-17T08:56:23.954Z,11.73
2022-12-17T08:59:08.642Z,12.37
2022-12-17T09:01:53.452Z,12.43
2022-12-17T09:04:38.229Z,13.00
2022-12-17T09:07:23.075Z,12.07
2022-12-17T09:10:07.814Z,12.07
2022-12-17T09:12:52.575Z,12.50
2022-12-17T09:15:37.575Z,11.70
2022-12-17T09:18:22.991Z,11.73
2022-12-17T09:21:14.728Z,11.90
2022-12-17T09:24:00.037Z,11.57
2022-12-17T09:26:45.000Z,12.30
2022-12-17T09:29:29.823Z,12.10
2022-12-17T09:32:14.654Z,11.20
2022-12-17T09:34:59.474Z,11.50
2022-12-17T09:37:44.683Z,12.07
2022-12-17T09:40:37.029Z,13.03
2022-12-17T09:43:33.542Z,11.63
2022-12-17T09:46:32.042Z,12.20
2022-12-17T09:49:27.473Z,12.13
2022-12-17T09:52:12.902Z,10.80
2022-12-17T09:55:08.535Z,11.17
2022-12-17T09:57:55.516Z,10.93
2022-12-17T10:00:44.026Z,11.00
2022-12-17T10:03:32.680Z,11.40
2022-12-17T10:06:24.971Z,10.43
2022-12-17T10:09:14.768Z,10.63
2022-12-17T10:12:00.151Z,10.60
2022-12-17T10:14:45.302Z,11.73
2022-12-17T10:17:39.695Z,11.27
2022-12-17T10:20:39.543Z,10.37
2022-12-17T10:23:24.922Z,11.47
2022-12-17T10:26:14.578Z,10.77
2022-12-17T10:29:00.056Z,11.40
2022-12-17T10:31:48.576Z,10.63
2022-12-17T10:34:37.101Z,11.13
2022-12-17T10:37:23.586Z,9.90
2022-12-17T10:40:14.990Z,10.60
2022-12-17T10:42:59.859Z,11.27
2022-12-17T10:45:50.965Z,11.70
2022-12-17T10:48:41.012Z,12.00
2022-12-17T10:51:55.327Z,10.57
2022-12-17T10:54:49.652Z,10.97
2022-12-17T10:57:49.099Z,11.43
2022-12-17T11:00:37.025Z,10.67
2022-12-17T11:03:22.872Z,9.90
2022-12-17T11:06:12.925Z,11.77
2022-12-17T11:08:59.532Z,11.40
2022-12-17T11:11:44.741Z,11.60
2022-12-17T11:14:32.233Z,12.03
2022-12-17T11:17:23.367Z,11.87
2022-12-17T11:20:26.734Z,11.93
2022-12-17T11:23:14.478Z,10.93
2022-12-17T11:26:08.756Z,10.70
2022-12-17T11:28:54.410Z,10.70
2022-12-17T11:32:01.024Z,12.67
2022-12-17T11:35:23.682Z,11.30
2022-12-17T11:38:22.816Z,11.27
2022-12-17T11:41:20.283Z,10.97
2022-12-17T11:44:31.459Z,11.90
2022-12-17T11:47:41.703Z,11.57
2022-12-17T11:50:44.965Z,11.00
2022-12-17T11:53:38.742Z,11.40
2022-12-17T11:56:38.728Z,12.03
2022-12-17T11:59:56.122Z,12.03
2022-12-17T12:03:12.223Z,12.37
2022-12-17T12:06:08.424Z,12.00
2022-12-17T12:09:00.533Z,11.33
2022-12-17T12:12:00.202Z,11.33
2022-12-17T12:15:01.791Z,11.73
2022-12-17T12:18:06.553Z,11.97
2022-12-17T12:21:18.278Z,13.37
2022-12-17T12:24:21.968Z,11.87
2022-12-17T12:27:26.485Z,12.93
2022-12-17T12:30:21.342Z,12.90
2022-12-17T12:33:30.126Z,12.03
2022-12-17T12:36:19.627Z,11.50
2022-12-17T12:39:12.744Z,12.60
2022-12-17T12:42:40.140Z,12.03
2022-12-17T12:45:49.682Z,11.73
2022-12-17T12:48:57.370Z,13.30
2022-12-17T12:51:46.852Z,11.63
2022-12-17T12:54:47.646Z,12.07
2022-12-17T12:57:52.935Z,12.50
2022-12-17T13:00:46.177Z,12.03
2022-12-17T13:03:53.225Z,12.80
2022-12-17T13:06:38.230Z,12.87
2022-12-17T13:09:33.882Z,12.03
2022-12-17T13:12:00.657Z,12.87
2022-12-17T13:14:31.315Z,12.33
2022-12-17T13:17:04.493Z,12.27
2022-12-17T13:19:31.237Z,11.47
2022-12-17T13:22:26.853Z,12.23
2022-12-17T13:24:56.833Z,12.97
2022-12-17T13:27:35.530Z,12.03
2022-12-17T13:30:20.723Z,12.87
2022-12-17T13:33:08.328Z,13.33
2022-12-17T13:35:49.363Z,13.10
2022-12-17T13:38:22.948Z,12.20
2022-12-17T13:41:10.488Z,11.93
2022-12-17T13:43:45.215Z,12.13
2022-12-17T13:46:26.882Z,12.13
2022-12-17T13:49:06.657Z,12.57
2022-12-17T13:51:35.234Z,13.07
2022-12-17T13:54:04.203Z,12.30
2022-12-17T13:56:36.181Z,12.43
2022-12-17T13:59:09.316Z,12.97
2022-12-17T14:01:45.352Z,14.47
2022-12-17T14:04:21.535Z,11.67
2022-12-17T14:06:48.468Z,12.63
2022-12-17T14:09:20.161Z,13.03
2022-12-17T14:12:06.718Z,12.20
2022-12-17T14:14:36.468Z,12.03
2022-12-17T14:17:03.655Z,12.33
2022-12-17T14:19:32.040Z,12.50
2022-12-17T14:21:59.282Z,12.03
2022-12-17T14:24:29.118Z,12.10
2022-12-17T14:27:00.675Z,12.40
2022-12-17T14:29:29.542Z,11.97
2022-12-17T14:32:01.299Z,12.57
2022-12-17T14:34:28.036Z,12.30
2022-12-17T14:37:00.127Z,11.60
2022-12-17T14:39:32.035Z,12.80
2022-12-17T14:42:25.566Z,12.47
2022-12-17T14:45:06.282Z,12.20
2022-12-17T14:47:34.700Z,11.97
2022-12-17T14:50:30.361Z,12.43
2022-12-17T14:52:58.725Z,12.33
2022-12-17T14:55:55.287Z,12.73
2022-12-17T14:58:24.626Z,13.27
2022-12-17T15:01:06.798Z,12.10
2022-12-17T15:03:39.027Z,12.47
2022-12-17T15:06:08.400Z,13.20
2022-12-17T15:08:43.171Z,13.40
2022-12-17T15:11:15.224Z,12.97
2022-12-17T15:13:42.393Z,13.80
2022-12-17T15:16:09.111Z,12.20
2022-12-17T15:18:35.825Z,12.33
2022-12-17T15:21:03.298Z,13.37
2022-12-17T15:23:31.029Z,13.40
2022-12-17T15:25:57.456Z,14.40
2022-12-17T15:28:26.894Z,14.70
2022-12-17T15:30:53.414Z,14.57
2022-12-17T15:33:19.922Z,15.10
2022-12-17T15:35:46.391Z,13.77
2022-12-17T15:38:12.843Z,13.87
2022-12-17T15:40:39.592Z,15.93
2022-12-17T15:43:12.276Z,14.47
2022-12-17T15:45:43.866Z,15.00
2022-12-17T15:48:12.025Z,13.63
2022-12-17T15:50:38.836Z,14.73
2022-12-17T15:53:06.044Z,13.13
2022-12-17T15:55:32.534Z,13.47
2022-12-17T15:57:58.967Z,13.70
2022-12-17T16:00:25.408Z,12.20
2022-12-17T16:02:52.125Z,13.33
2022-12-17T16:05:19.534Z,13.07
2022-12-17T16:07:45.891Z,13.20
2022-12-17T16:10:13.282Z,13.87
2022-12-17T16:12:39.898Z,12.67
2022-12-17T16:15:08.028Z,11.77
2022-12-17T16:17:34.775Z,14.27
2022-12-17T16:20:01.247Z,13.77
2022-12-17T16:22:28.268Z,14.23
2022-12-17T16:24:55.087Z,14.60
2022-12-17T16:27:21.690Z,13.67
2022-12-17T16:29:48.193Z,14.30
2022-12-17T16:32:15.651Z,16.13
2022-12-17T16:34:42.361Z,16.80
2022-12-17T16:37:09.172Z,14.87
2022-12-17T16:39:35.683Z,15.90
2022-12-17T16:42:02.181Z,14.53
2022-12-17T16:44:28.620Z,14.40
2022-12-17T16:46:55.277Z,14.03
2022-12-17T16:49:23.737Z,15.40
2022-12-17T16:51:55.299Z,15.47
2022-12-17T16:54:26.283Z,16.27
2022-12-17T16:56:53.224Z,16.87
2022-12-17T16:59:20.210Z,19.13
2022-12-17T17:01:48.751Z,22.00
2022-12-17T17:04:16.668Z,22.43
2022-12-17T17:06:46.674Z,19.60
2022-12-17T17:09:14.054Z,18.13
2022-12-17T17:11:41.065Z,21.07
2022-12-17T17:14:08.138Z,19.80
2022-12-17T17:16:35.560Z,21.67
2022-12-17T17:19:04.996Z,18.57
2022-12-17T17:21:36.486Z,17.50
2022-12-17T17:24:20.951Z,17.40
2022-12-17T17:26:48.371Z,17.43
2022-12-17T17:29:14.775Z,16.93
2022-12-17T17:34:27.704Z,18.17
2022-12-17T17:36:54.065Z,18.83
2022-12-17T17:39:20.427Z,19.37
2022-12-17T17:41:46.916Z,21.47
2022-12-17T17:44:14.149Z,20.43
2022-12-17T17:46:41.362Z,20.93
2022-12-17T17:49:08.362Z,18.20
2022-12-17T17:52:08.431Z,19.37
2022-12-17T17:54:24.163Z,20.20
2022-12-17T17:56:50.746Z,19.93
2022-12-17T17:59:19.282Z,20.77
2022-12-17T18:01:49.661Z,18.90
2022-12-17T18:04:19.995Z,18.90
2022-12-17T18:07:15.969Z,16.97
2022-12-17T18:09:33.913Z,19.87
2022-12-17T18:12:20.357Z,20.63
2022-12-17T18:15:11.877Z,18.60
2022-12-17T18:17:33.217Z,17.47
2022-12-17T18:19:59.692Z,17.27
2022-12-17T18:22:26.118Z,17.10
2022-12-17T18:24:52.527Z,17.90
2022-12-17T18:27:18.943Z,16.63
2022-12-17T18:29:45.345Z,15.83
2022-12-17T18:32:11.742Z,16.07
2022-12-17T18:34:38.181Z,14.73
2022-12-17T18:37:05.192Z,16.93
2022-12-17T18:39:31.572Z,16.30
2022-12-17T18:42:16.591Z,15.70
2022-12-17T18:44:42.988Z,15.87
2022-12-17T18:47:10.482Z,15.00
2022-12-17T18:49:37.576Z,14.93
2022-12-17T18:52:03.991Z,14.50
2022-12-17T18:54:31.148Z,12.80
2022-12-17T18:57:02.126Z,14.73
2022-12-17T18:59:30.304Z,14.50
2022-12-17T19:01:57.638Z,14.47
2022-12-17T19:04:25.656Z,15.17
2022-12-17T19:06:53.734Z,15.37
2022-12-17T19:09:26.369Z,14.70
2022-12-17T19:11:53.527Z,14.37
2022-12-17T19:14:22.402Z,14.13
2022-12-17T19:16:50.962Z,13.67
2022-12-17T19:19:18.280Z,13.83
2022-12-17T19:21:44.710Z,14.93
2022-12-17T19:24:17.631Z,14.43
2022-12-17T19:26:44.576Z,12.57
2022-12-17T19:29:16.571Z,12.80
2022-12-17T19:31:43.734Z,12.90
2022-12-17T19:34:12.775Z,12.53
2022-12-17T19:36:40.745Z,12.03
2022-12-17T19:39:10.930Z,12.27
2022-12-17T19:41:37.352Z,11.50
2022-12-17T19:44:05.967Z,12.90
2022-12-17T19:46:34.401Z,13.37
2022-12-17T19:49:03.026Z,12.23
2022-12-17T19:51:31.404Z,13.23
2022-12-17T19:54:00.715Z,12.83
2022-12-17T19:56:31.910Z,12.00
2022-12-17T19:59:06.750Z,11.63
2022-12-17T20:01:40.325Z,12.60
2022-12-17T20:04:06.867Z,12.13
2022-12-17T20:06:35.064Z,12.07
2022-12-17T20:09:04.480Z,12.00
2022-12-17T20:11:34.015Z,11.37
2022-12-17T20:14:17.657Z,11.70
2022-12-17T20:16:48.673Z,11.40
2022-12-17T20:19:18.188Z,11.33
2022-12-17T20:21:44.872Z,11.30
2022-12-17T20:24:12.069Z,12.83
2022-12-17T20:26:39.544Z,10.80
2022-12-17T20:29:06.887Z,10.60
2022-12-17T20:31:34.204Z,10.53
2022-12-17T20:34:01.915Z,11.43
2022-12-17T20:36:28.345Z,11.43
2022-12-17T20:38:54.973Z,12.30
2022-12-17T20:41:26.704Z,11.90
2022-12-17T20:43:53.509Z,11.93
2022-12-17T20:46:22.038Z,12.10
2022-12-17T20:48:48.870Z,11.73
2022-12-17T20:51:21.500Z,11.50
2022-12-17T20:53:53.669Z,11.63
2022-12-17T20:56:26.196Z,11.80
2022-12-17T20:58:54.778Z,12.37
2022-12-17T21:01:23.677Z,12.23
2022-12-17T21:03:51.863Z,11.70
2022-12-17T21:06:24.282Z,12.03
2022-12-17T21:08:52.927Z,12.50
2022-12-17T21:11:22.453Z,13.07
2022-12-17T21:13:49.054Z,11.73
2022-12-17T21:16:18.314Z,14.37
2022-12-17T21:18:45.267Z,13.27
2022-12-17T21:21:18.481Z,11.87
2022-12-17T21:23:46.611Z,12.07
2022-12-17T21:26:20.484Z,11.37
2022-12-17T21:28:48.572Z,13.03
2022-12-17T21:31:21.020Z,11.90
2022-12-17T21:33:48.697Z,11.80
2022-12-17T21:36:16.834Z,11.73
2022-12-17T21:38:43.536Z,10.47
2022-12-17T21:41:12.783Z,12.07
2022-12-17T21:43:40.329Z,10.97
2022-12-17T21:46:08.633Z,11.37
2022-12-17T21:48:41.681Z,12.67
2022-12-17T21:51:10.616Z,11.73
2022-12-17T21:53:42.065Z,10.67
2022-12-17T21:56:11.025Z,10.93
2022-12-17T21:58:38.088Z,9.73
2022-12-17T22:01:29.092Z,10.17
2022-12-17T22:03:57.930Z,10.90
2022-12-17T22:06:30.221Z,9.77
2022-12-17T22:09:01.050Z,9.70
2022-12-17T22:11:33.627Z,9.20
2022-12-17T22:14:07.371Z,8.70
2022-12-17T22:16:47.307Z,9.40
2022-12-17T22:19:21.254Z,8.43
2022-12-17T22:21:49.985Z,8.10
2022-12-17T22:24:19.618Z,8.57
2022-12-17T22:26:46.782Z,8.10
2022-12-17T22:29:33.834Z,7.87
2022-12-17T22:32:18.941Z,8.83
2022-12-17T22:35:17.130Z,8.40
2022-12-17T22:39:45.781Z,8.50
2022-12-17T22:43:33.085Z,8.60
2022-12-17T22:44:52.131Z,8.10
2022-12-17T22:46:15.695Z,8.27
2022-12-17T22:48:42.100Z,9.53
2022-12-17T22:51:10.547Z,8.87
2022-12-17T22:53:39.618Z,8.43
2022-12-17T22:56:18.574Z,8.03
2022-12-17T22:58:53.619Z,9.03
2022-12-17T23:01:23.142Z,8.13
2022-12-17T23:03:50.158Z,7.90
2022-12-17T23:06:18.306Z,8.10
2022-12-17T23:08:45.201Z,7.63
2022-12-17T23:11:15.466Z,8.70
2022-12-17T23:13:42.467Z,7.47
2022-12-17T23:16:11.334Z,7.73
2022-12-17T23:18:37.710Z,7.53
2022-12-17T23:21:30.386Z,7.73
2022-12-17T23:23:57.787Z,6.97
2022-12-17T23:26:27.382Z,8.30
2022-12-17T23:29:07.022Z,7.47
2022-12-17T23:31:36.546Z,7.43
2022-12-17T23:34:03.604Z,7.37
2022-12-17T23:36:30.493Z,7.63
2022-12-17T23:38:57.357Z,8.33
2022-12-17T23:41:26.936Z,7.77
2022-12-17T23:43:53.963Z,8.40
2022-12-17T23:46:21.426Z,8.23
2022-12-17T23:48:48.127Z,7.33
2022-12-17T23:51:17.126Z,7.47
2022-12-17T23:53:44.147Z,7.17
2022-12-17T23:56:14.368Z,7.47
2022-12-17T23:58:42.454Z,6.70
